createdAt,value
2017-09-15T00:00:17.214Z,0.00
2017-09-15T00:01:17.263Z,0.00
2017-09-15T00:02:17.311Z,0.00
2017-09-15T00:03:17.433Z,0.00
2017-09-15T00:04:17.404Z,0.00
2017-09-15T00:05:17.453Z,0.00
2017-09-15T00:06:17.503Z,0.00
2017-09-15T00:07:17.549Z,0.00
2017-09-15T00:08:17.678Z,0.00
2017-09-15T00:09:17.645Z,0.00
2017-09-15T00:10:17.693Z,0.00
2017-09-15T00:11:17.743Z,0.00
2017-09-15T00:12:17.795Z,0.00
2017-09-15T00:13:17.905Z,0.00
2017-09-15T00:14:17.946Z,0.00
2017-09-15T00:15:17.933Z,0.00
2017-09-15T00:16:17.986Z,0.00
2017-09-15T00:17:18.029Z,0.00
2017-09-15T00:18:18.076Z,0.00
2017-09-15T00:19:18.185Z,0.00
2017-09-15T00:20:18.172Z,0.00
2017-09-15T00:21:18.225Z,0.00
2017-09-15T00:22:18.269Z,0.00
2017-09-15T00:23:18.315Z,0.00
2017-09-15T00:24:18.425Z,0.00
2017-09-15T00:25:18.415Z,0.00
2017-09-15T00:26:18.462Z,0.00
2017-09-15T00:27:18.509Z,0.00
2017-09-15T00:28:18.555Z,0.00
2017-09-15T00:29:18.665Z,0.00
2017-09-15T00:30:18.656Z,0.00
2017-09-15T00:31:18.708Z,0.00
2017-09-15T00:32:18.746Z,0.00
2017-09-15T00:33:18.796Z,0.00
2017-09-15T00:34:18.929Z,0.00
2017-09-15T00:35:18.894Z,0.00
2017-09-15T00:36:18.942Z,0.00
2017-09-15T00:37:18.987Z,0.00
2017-09-15T00:38:19.036Z,0.00
2017-09-15T00:39:19.153Z,0.00
2017-09-15T00:40:19.131Z,0.00
2017-09-15T00:41:19.183Z,0.00
2017-09-15T00:42:19.229Z,0.00
2017-09-15T00:43:19.787Z,0.00
2017-09-15T00:44:19.386Z,0.00
2017-09-15T00:45:19.440Z,0.00
2017-09-15T00:46:19.423Z,0.00
2017-09-15T00:47:19.469Z,0.00
2017-09-15T00:48:19.518Z,0.00
2017-09-15T00:49:19.564Z,0.00
2017-09-15T00:50:19.674Z,0.00
2017-09-15T00:51:19.663Z,0.00
2017-09-15T00:52:19.706Z,0.00
2017-09-15T00:53:19.761Z,0.00
2017-09-15T00:54:19.805Z,0.00
2017-09-15T00:55:19.912Z,0.00
2017-09-15T00:56:19.903Z,0.00
2017-09-15T00:57:19.946Z,0.00
2017-09-15T00:58:19.996Z,0.00
2017-09-15T00:59:20.044Z,0.00
2017-09-15T01:00:20.153Z,0.00
2017-09-15T01:01:20.143Z,0.00
2017-09-15T01:02:20.197Z,0.00
2017-09-15T01:03:20.236Z,0.00
2017-09-15T01:04:20.282Z,0.00
2017-09-15T01:05:20.413Z,0.00
2017-09-15T01:06:20.380Z,0.00
2017-09-15T01:07:20.427Z,0.00
2017-09-15T01:08:20.473Z,0.00
2017-09-15T01:09:20.521Z,0.00
2017-09-15T01:10:20.637Z,0.00
2017-09-15T01:11:20.620Z,0.00
2017-09-15T01:12:20.666Z,0.00
2017-09-15T01:13:20.716Z,0.00
2017-09-15T01:14:20.762Z,0.00
2017-09-15T01:15:20.883Z,0.00
2017-09-15T01:16:20.855Z,0.00
2017-09-15T01:17:20.911Z,0.00
2017-09-15T01:18:20.953Z,0.00
2017-09-15T01:19:20.999Z,0.00
2017-09-15T01:20:21.131Z,0.00
2017-09-15T01:21:21.094Z,0.00
2017-09-15T01:22:21.146Z,0.00
2017-09-15T01:23:21.193Z,0.00
2017-09-15T01:24:21.240Z,0.00
2017-09-15T01:25:21.351Z,0.00
2017-09-15T01:26:21.396Z,0.00
2017-09-15T01:27:21.387Z,0.00
2017-09-15T01:28:21.430Z,0.00
2017-09-15T01:29:21.477Z,0.00
2017-09-15T01:30:21.535Z,0.00
2017-09-15T01:31:21.643Z,0.00
2017-09-15T01:32:21.632Z,0.00
2017-09-15T01:33:21.667Z,0.00
2017-09-15T01:34:21.717Z,0.00
2017-09-15T01:35:21.766Z,0.00
2017-09-15T01:36:21.873Z,0.00
2017-09-15T01:37:21.858Z,0.00
2017-09-15T01:38:21.907Z,0.00
2017-09-15T01:39:21.956Z,0.00
2017-09-15T01:40:22.011Z,0.00
2017-09-15T01:41:22.115Z,0.00
2017-09-15T01:42:22.099Z,0.00
2017-09-15T01:43:22.145Z,0.00
2017-09-15T01:44:22.193Z,0.00
2017-09-15T01:45:22.241Z,0.00
2017-09-15T01:46:22.361Z,0.00
2017-09-15T01:47:22.338Z,0.00
2017-09-15T01:48:22.383Z,0.00
2017-09-15T01:49:22.434Z,0.00
2017-09-15T01:50:22.481Z,0.00
2017-09-15T01:51:22.602Z,0.00
2017-09-15T01:52:22.574Z,0.00
2017-09-15T01:53:22.622Z,0.00
2017-09-15T01:54:22.671Z,0.00
2017-09-15T01:55:22.718Z,0.00
2017-09-15T01:56:22.833Z,0.00
2017-09-15T01:57:22.881Z,0.00
2017-09-15T01:58:22.862Z,0.00
2017-09-15T01:59:22.909Z,0.00
2017-09-15T02:00:22.955Z,0.00
2017-09-15T02:01:23.004Z,0.00
2017-09-15T02:02:23.111Z,0.00
2017-09-15T02:03:23.099Z,0.00
2017-09-15T02:04:23.151Z,0.00
2017-09-15T02:05:23.193Z,0.00
2017-09-15T02:06:23.242Z,0.00
2017-09-15T02:07:23.359Z,0.00
2017-09-15T02:08:23.334Z,0.00
2017-09-15T02:09:23.392Z,0.00
2017-09-15T02:10:23.435Z,0.00
2017-09-15T02:11:23.479Z,0.00
2017-09-15T02:12:23.624Z,0.00
2017-09-15T02:13:23.574Z,0.00
2017-09-15T02:14:23.623Z,0.00
2017-09-15T02:15:23.670Z,0.00
2017-09-15T02:16:23.716Z,0.00
2017-09-15T02:17:23.829Z,0.00
2017-09-15T02:18:23.809Z,0.00
2017-09-15T02:19:23.863Z,0.00
2017-09-15T02:20:23.907Z,0.00
2017-09-15T02:21:23.951Z,0.00
2017-09-15T02:22:24.080Z,0.00
2017-09-15T02:23:24.049Z,0.00
2017-09-15T02:24:24.092Z,0.00
2017-09-15T02:25:24.139Z,0.00
2017-09-15T02:26:24.190Z,0.00
2017-09-15T02:27:24.309Z,0.00
2017-09-15T02:28:24.284Z,0.00
2017-09-15T02:29:24.328Z,0.00
2017-09-15T02:30:24.374Z,0.00
2017-09-15T02:31:24.423Z,0.00
2017-09-15T02:32:24.549Z,0.00
2017-09-15T02:33:24.519Z,0.00
2017-09-15T02:34:24.565Z,0.00
2017-09-15T02:35:24.611Z,0.00
2017-09-15T02:36:24.685Z,0.00
2017-09-15T02:37:24.770Z,0.00
2017-09-15T02:38:24.751Z,0.00
2017-09-15T02:39:24.802Z,0.00
2017-09-15T02:40:24.857Z,0.00
2017-09-15T02:41:24.893Z,0.00
2017-09-15T02:42:25.013Z,0.00
2017-09-15T02:43:24.991Z,0.00
2017-09-15T02:44:25.037Z,0.00
2017-09-15T02:45:25.085Z,0.00
2017-09-15T02:46:25.127Z,0.00
2017-09-15T02:47:25.240Z,0.00
2017-09-15T02:48:25.281Z,0.00
2017-09-15T02:49:25.266Z,0.00
2017-09-15T02:50:25.314Z,0.00
2017-09-15T02:51:25.359Z,0.00
2017-09-15T02:52:25.406Z,0.00
2017-09-15T02:53:25.524Z,0.00
2017-09-15T02:54:25.501Z,0.00
2017-09-15T02:55:25.547Z,0.00
2017-09-15T02:56:25.594Z,0.00
2017-09-15T02:57:25.640Z,0.00
2017-09-15T02:58:25.748Z,0.00
2017-09-15T02:59:25.733Z,0.00
2017-09-15T03:00:25.780Z,0.00
2017-09-15T03:01:25.826Z,0.00
2017-09-15T03:02:25.880Z,0.00
2017-09-15T03:03:25.982Z,0.00
2017-09-15T03:04:25.965Z,0.00
2017-09-15T03:05:26.014Z,0.00
2017-09-15T03:06:26.064Z,0.00
2017-09-15T03:07:26.107Z,0.00
2017-09-15T03:08:26.215Z,0.00
2017-09-15T03:09:26.203Z,0.00
2017-09-15T03:10:26.246Z,0.00
2017-09-15T03:11:26.292Z,0.00
2017-09-15T03:12:26.339Z,0.00
2017-09-15T03:13:26.468Z,0.00
2017-09-15T03:14:26.434Z,0.00
2017-09-15T03:15:26.478Z,0.00
2017-09-15T03:16:26.524Z,0.00
2017-09-15T03:17:26.571Z,0.00
2017-09-15T03:18:26.679Z,0.00
2017-09-15T03:19:26.731Z,0.00
2017-09-15T03:20:26.713Z,0.00
2017-09-15T03:21:26.763Z,0.00
2017-09-15T03:22:26.806Z,0.00
2017-09-15T03:23:26.850Z,0.00
2017-09-15T03:24:26.957Z,0.00
2017-09-15T03:25:26.944Z,0.00
2017-09-15T03:26:26.989Z,0.00
2017-09-15T03:27:27.038Z,0.00
2017-09-15T03:28:27.082Z,0.00
2017-09-15T03:29:27.189Z,0.00
2017-09-15T03:30:27.176Z,0.00
2017-09-15T03:31:27.221Z,0.00
2017-09-15T03:32:27.267Z,0.00
2017-09-15T03:33:27.318Z,0.00
2017-09-15T03:34:27.440Z,0.00
2017-09-15T03:35:27.406Z,0.00
2017-09-15T03:36:27.451Z,0.00
2017-09-15T03:37:27.497Z,0.00
2017-09-15T03:38:27.543Z,0.00
2017-09-15T03:39:27.664Z,0.00
2017-09-15T03:40:27.669Z,0.00
2017-09-15T03:41:27.683Z,0.00
2017-09-15T03:42:27.728Z,0.00
2017-09-15T03:43:27.777Z,0.00
2017-09-15T03:44:27.901Z,0.00
2017-09-15T03:45:27.868Z,0.00
2017-09-15T03:46:27.915Z,0.00
2017-09-15T03:47:27.961Z,0.00
2017-09-15T03:48:28.005Z,0.00
2017-09-15T03:49:28.116Z,0.00
2017-09-15T03:50:28.161Z,0.00
2017-09-15T03:51:28.147Z,0.00
2017-09-15T03:52:28.191Z,0.00
2017-09-15T03:53:28.250Z,0.00
2017-09-15T03:54:28.283Z,0.00
2017-09-15T03:55:28.391Z,0.00
2017-09-15T03:56:28.376Z,0.00
2017-09-15T03:57:28.422Z,0.00
2017-09-15T03:58:28.470Z,0.00
2017-09-15T03:59:28.515Z,0.00
2017-09-15T04:00:28.636Z,0.00
2017-09-15T04:01:28.612Z,0.00
2017-09-15T04:02:28.655Z,0.00
2017-09-15T04:03:28.699Z,0.00
2017-09-15T04:04:28.745Z,0.00
2017-09-15T04:05:28.852Z,0.00
2017-09-15T04:06:28.902Z,0.00
2017-09-15T04:07:28.884Z,0.00
2017-09-15T04:08:28.949Z,0.00
2017-09-15T04:09:28.976Z,0.00
2017-09-15T04:10:29.021Z,0.00
2017-09-15T04:11:29.134Z,0.00
2017-09-15T04:12:29.116Z,0.00
2017-09-15T04:13:29.163Z,0.00
2017-09-15T04:14:29.206Z,0.00
2017-09-15T04:15:29.250Z,0.00
2017-09-15T04:16:29.358Z,0.00
2017-09-15T04:17:29.345Z,0.00
2017-09-15T04:18:29.389Z,0.00
2017-09-15T04:19:29.441Z,0.00
2017-09-15T04:20:29.479Z,0.00
2017-09-15T04:21:29.596Z,0.00
2017-09-15T04:22:29.575Z,0.00
2017-09-15T04:23:29.619Z,0.00
2017-09-15T04:24:29.665Z,0.00
2017-09-15T04:25:29.711Z,0.00
2017-09-15T04:26:29.820Z,0.00
2017-09-15T04:27:29.801Z,0.00
2017-09-15T04:28:29.848Z,0.00
2017-09-15T04:29:29.898Z,0.00
2017-09-15T04:30:29.941Z,0.00
2017-09-15T04:31:30.049Z,0.00
2017-09-15T04:32:30.032Z,0.00
2017-09-15T04:33:30.077Z,0.00
2017-09-15T04:34:30.124Z,0.00
2017-09-15T04:35:30.170Z,0.00
2017-09-15T04:36:30.294Z,0.00
2017-09-15T04:37:30.265Z,0.00
2017-09-15T04:38:30.306Z,0.00
2017-09-15T04:39:30.354Z,0.00
2017-09-15T04:40:30.407Z,0.00
2017-09-15T04:41:30.517Z,0.00
2017-09-15T04:42:30.496Z,0.00
2017-09-15T04:43:30.538Z,0.00
2017-09-15T04:44:30.580Z,0.00
2017-09-15T04:45:30.630Z,0.00
2017-09-15T04:46:30.755Z,0.00
2017-09-15T04:47:30.719Z,0.00
2017-09-15T04:48:30.766Z,0.00
2017-09-15T04:49:31.453Z,0.00
2017-09-15T04:50:30.859Z,0.00
2017-09-15T04:51:30.979Z,0.00
2017-09-15T04:52:30.956Z,5.63
2017-09-15T04:53:31.002Z,5.63
2017-09-15T04:54:31.042Z,5.63
2017-09-15T04:55:31.085Z,5.63
2017-09-15T04:56:31.222Z,5.63
2017-09-15T04:57:31.181Z,5.63
2017-09-15T04:58:31.224Z,11.25
2017-09-15T04:59:31.271Z,11.25
2017-09-15T05:00:31.315Z,11.25
2017-09-15T05:01:31.432Z,11.25
2017-09-15T05:02:31.407Z,16.88
2017-09-15T05:03:31.454Z,16.88
2017-09-15T05:04:31.499Z,16.88
2017-09-15T05:05:31.547Z,16.88
2017-09-15T05:06:31.675Z,22.50
2017-09-15T05:07:31.640Z,22.50
2017-09-15T05:08:31.683Z,22.50
2017-09-15T05:09:31.728Z,28.13
2017-09-15T05:10:31.776Z,28.13
2017-09-15T05:11:31.892Z,28.13
2017-09-15T05:12:31.869Z,33.75
2017-09-15T05:13:31.910Z,33.75
2017-09-15T05:14:31.959Z,33.75
2017-09-15T05:15:32.003Z,39.38
2017-09-15T05:16:32.110Z,39.38
2017-09-15T05:17:32.156Z,45.00
2017-09-15T05:18:32.143Z,45.00
2017-09-15T05:19:32.191Z,45.00
2017-09-15T05:20:32.233Z,50.63
2017-09-15T05:21:32.278Z,50.63
2017-09-15T05:22:32.386Z,50.63
2017-09-15T05:23:32.369Z,56.25
2017-09-15T05:24:32.419Z,56.25
2017-09-15T05:25:32.459Z,61.88
2017-09-15T05:26:32.508Z,61.88
2017-09-15T05:27:32.615Z,61.88
2017-09-15T05:28:32.599Z,67.50
2017-09-15T05:29:32.645Z,67.50
2017-09-15T05:30:32.694Z,73.13
2017-09-15T05:31:32.740Z,73.13
2017-09-15T05:32:32.845Z,73.13
2017-09-15T05:33:32.833Z,78.75
2017-09-15T05:34:32.877Z,78.75
2017-09-15T05:35:32.920Z,84.38
2017-09-15T05:36:32.964Z,84.38
2017-09-15T05:37:33.079Z,84.38
2017-09-15T05:38:33.057Z,90.00
2017-09-15T05:39:33.104Z,90.00
2017-09-15T05:40:33.158Z,90.00
2017-09-15T05:41:33.201Z,95.63
2017-09-15T05:42:33.314Z,95.63
2017-09-15T05:43:33.288Z,101.25
2017-09-15T05:44:33.333Z,101.25
2017-09-15T05:45:33.380Z,106.88
2017-09-15T05:46:33.446Z,106.88
2017-09-15T05:47:33.552Z,106.88
2017-09-15T05:48:33.515Z,112.50
2017-09-15T05:49:33.562Z,112.50
2017-09-15T05:50:33.608Z,112.50
2017-09-15T05:51:33.654Z,118.13
2017-09-15T05:52:33.764Z,118.13
2017-09-15T05:53:33.806Z,123.75
2017-09-15T05:54:33.792Z,123.75
2017-09-15T05:55:33.838Z,123.75
2017-09-15T05:56:33.885Z,129.38
2017-09-15T05:57:33.928Z,129.38
2017-09-15T05:58:34.041Z,129.38
2017-09-15T05:59:34.021Z,135.00
2017-09-15T06:00:34.068Z,135.00
2017-09-15T06:01:34.114Z,135.00
2017-09-15T06:02:34.160Z,140.63
2017-09-15T06:03:34.270Z,140.63
2017-09-15T06:04:34.251Z,140.63
2017-09-15T06:05:34.302Z,146.25
2017-09-15T06:06:34.344Z,146.25
2017-09-15T06:07:34.390Z,151.88
2017-09-15T06:08:34.519Z,151.88
2017-09-15T06:09:34.483Z,151.88
2017-09-15T06:10:34.529Z,157.50
2017-09-15T06:11:34.575Z,157.50
2017-09-15T06:12:34.619Z,157.50
2017-09-15T06:13:34.740Z,163.13
2017-09-15T06:14:34.718Z,163.13
2017-09-15T06:15:34.762Z,163.13
2017-09-15T06:16:34.808Z,168.75
2017-09-15T06:17:34.852Z,168.75
2017-09-15T06:18:34.982Z,168.75
2017-09-15T06:19:34.948Z,174.38
2017-09-15T06:20:34.990Z,174.38
2017-09-15T06:21:35.040Z,174.38
2017-09-15T06:22:35.086Z,174.38
2017-09-15T06:23:35.204Z,180.00
2017-09-15T06:24:35.174Z,180.00
2017-09-15T06:25:35.250Z,180.00
2017-09-15T06:26:35.269Z,185.63
2017-09-15T06:27:35.320Z,185.63
2017-09-15T06:28:35.442Z,185.63
2017-09-15T06:29:35.411Z,191.25
2017-09-15T06:30:35.455Z,191.25
2017-09-15T06:31:35.525Z,191.25
2017-09-15T06:32:35.548Z,196.88
2017-09-15T06:33:35.666Z,196.88
2017-09-15T06:34:35.641Z,202.50
2017-09-15T06:35:35.690Z,202.50
2017-09-15T06:36:35.736Z,202.50
2017-09-15T06:37:35.780Z,208.13
2017-09-15T06:38:35.908Z,208.13
2017-09-15T06:39:35.876Z,208.13
2017-09-15T06:40:35.922Z,213.75
2017-09-15T06:41:35.968Z,213.75
2017-09-15T06:42:36.015Z,270.00
2017-09-15T06:43:36.122Z,365.63
2017-09-15T06:44:36.171Z,410.63
2017-09-15T06:45:36.158Z,410.63
2017-09-15T06:46:36.205Z,416.25
2017-09-15T06:47:36.250Z,427.50
2017-09-15T06:48:36.296Z,438.75
2017-09-15T06:49:36.413Z,455.63
2017-09-15T06:50:36.391Z,478.13
2017-09-15T06:51:36.437Z,461.25
2017-09-15T06:52:36.486Z,455.63
2017-09-15T06:53:36.535Z,444.38
2017-09-15T06:54:36.650Z,450.00
2017-09-15T06:55:36.629Z,461.25
2017-09-15T06:56:36.675Z,478.13
2017-09-15T06:57:36.724Z,500.63
2017-09-15T06:58:36.775Z,511.88
2017-09-15T06:59:36.896Z,545.63
2017-09-15T07:00:36.868Z,551.25
2017-09-15T07:01:36.915Z,551.25
2017-09-15T07:02:36.967Z,556.88
2017-09-15T07:03:37.054Z,568.13
2017-09-15T07:04:37.129Z,573.75
2017-09-15T07:05:37.172Z,579.38
2017-09-15T07:06:37.163Z,585.00
2017-09-15T07:07:37.213Z,585.00
2017-09-15T07:08:37.255Z,585.00
2017-09-15T07:09:37.307Z,590.63
2017-09-15T07:10:37.418Z,596.25
2017-09-15T07:11:37.415Z,596.25
2017-09-15T07:12:37.455Z,601.88
2017-09-15T07:13:37.504Z,607.50
2017-09-15T07:14:37.552Z,618.75
2017-09-15T07:15:37.670Z,630.00
2017-09-15T07:16:37.653Z,630.00
2017-09-15T07:17:37.700Z,635.63
2017-09-15T07:18:37.751Z,646.88
2017-09-15T07:19:37.800Z,652.50
2017-09-15T07:20:37.910Z,669.38
2017-09-15T07:21:37.898Z,669.38
2017-09-15T07:22:37.951Z,680.63
2017-09-15T07:23:38.000Z,686.25
2017-09-15T07:24:38.049Z,691.88
2017-09-15T07:25:38.158Z,703.13
2017-09-15T07:26:38.149Z,708.75
2017-09-15T07:27:38.196Z,714.38
2017-09-15T07:28:38.250Z,720.00
2017-09-15T07:29:38.304Z,731.25
2017-09-15T07:30:38.406Z,742.50
2017-09-15T07:31:38.395Z,748.13
2017-09-15T07:32:38.443Z,770.63
2017-09-15T07:33:38.504Z,781.88
2017-09-15T07:34:38.548Z,798.75
2017-09-15T07:35:38.678Z,815.63
2017-09-15T07:36:38.645Z,832.50
2017-09-15T07:37:38.702Z,855.00
2017-09-15T07:38:38.743Z,877.50
2017-09-15T07:39:38.798Z,911.25
2017-09-15T07:40:38.910Z,933.75
2017-09-15T07:41:38.896Z,939.38
2017-09-15T07:42:38.980Z,939.38
2017-09-15T07:43:38.997Z,928.13
2017-09-15T07:44:39.050Z,922.50
2017-09-15T07:45:39.179Z,916.88
2017-09-15T07:46:39.149Z,911.25
2017-09-15T07:47:39.198Z,900.00
2017-09-15T07:48:39.244Z,894.38
2017-09-15T07:49:39.297Z,888.75
2017-09-15T07:50:39.428Z,888.75
2017-09-15T07:51:39.397Z,894.38
2017-09-15T07:52:39.452Z,900.00
2017-09-15T07:53:39.501Z,905.63
2017-09-15T07:54:39.550Z,916.88
2017-09-15T07:55:39.682Z,928.13
2017-09-15T07:56:39.650Z,945.00
2017-09-15T07:57:39.702Z,956.25
2017-09-15T07:58:39.751Z,973.13
2017-09-15T07:59:39.803Z,990.00
2017-09-15T08:00:39.918Z,990.00
2017-09-15T08:01:39.965Z,1001.25
2017-09-15T08:02:39.955Z,1001.25
2017-09-15T08:03:40.010Z,1006.88
2017-09-15T08:04:40.056Z,1023.75
2017-09-15T08:05:40.108Z,1046.25
2017-09-15T08:06:40.236Z,1063.13
2017-09-15T08:07:40.211Z,1068.75
2017-09-15T08:08:40.261Z,1074.38
2017-09-15T08:09:40.312Z,1074.38
2017-09-15T08:10:40.366Z,1074.38
2017-09-15T08:11:40.498Z,1063.13
2017-09-15T08:12:40.467Z,1057.50
2017-09-15T08:13:40.519Z,1051.88
2017-09-15T08:14:40.568Z,1035.00
2017-09-15T08:15:40.628Z,1029.38
2017-09-15T08:16:40.735Z,1029.38
2017-09-15T08:17:40.784Z,1023.75
2017-09-15T08:18:40.777Z,1023.75
2017-09-15T08:19:40.830Z,1023.75
2017-09-15T08:20:40.876Z,1018.13
2017-09-15T08:21:40.927Z,1029.38
2017-09-15T08:22:41.046Z,1035.00
2017-09-15T08:23:41.031Z,1051.88
2017-09-15T08:24:41.083Z,1063.13
2017-09-15T08:25:41.135Z,1068.75
2017-09-15T08:26:41.189Z,1074.38
2017-09-15T08:27:41.299Z,1074.38
2017-09-15T08:28:41.292Z,1068.75
2017-09-15T08:29:41.344Z,1063.13
2017-09-15T08:30:41.395Z,1068.75
2017-09-15T08:31:41.446Z,1068.75
2017-09-15T08:32:41.563Z,1074.38
2017-09-15T08:33:41.548Z,1080.00
2017-09-15T08:34:41.600Z,1085.63
2017-09-15T08:35:41.653Z,1085.63
2017-09-15T08:36:41.703Z,1091.25
2017-09-15T08:37:41.837Z,1102.50
2017-09-15T08:38:41.805Z,1108.13
2017-09-15T08:39:41.856Z,1113.75
2017-09-15T08:40:41.907Z,1119.38
2017-09-15T08:41:41.959Z,1119.38
2017-09-15T08:42:42.086Z,1119.38
2017-09-15T08:43:42.065Z,1113.75
2017-09-15T08:44:42.122Z,1119.38
2017-09-15T08:45:42.169Z,1125.00
2017-09-15T08:46:42.221Z,1136.25
2017-09-15T08:47:42.358Z,1141.88
2017-09-15T08:48:42.326Z,1130.63
2017-09-15T08:49:42.373Z,1130.63
2017-09-15T08:50:42.425Z,1136.25
2017-09-15T08:51:42.479Z,1141.88
2017-09-15T08:52:42.610Z,1153.13
2017-09-15T08:53:42.582Z,1158.75
2017-09-15T08:54:42.634Z,1181.25
2017-09-15T08:55:42.688Z,1198.13
2017-09-15T08:56:42.737Z,1226.25
2017-09-15T08:57:42.866Z,1260.00
2017-09-15T08:58:42.847Z,1299.38
2017-09-15T08:59:42.895Z,1344.38
2017-09-15T09:00:42.952Z,1372.50
2017-09-15T09:01:43.001Z,1423.13
2017-09-15T09:02:43.114Z,1462.50
2017-09-15T09:03:43.168Z,1541.25
2017-09-15T09:04:43.158Z,1608.75
2017-09-15T09:05:43.213Z,1676.25
2017-09-15T09:06:43.263Z,1738.13
2017-09-15T09:07:43.317Z,1816.88
2017-09-15T09:08:43.430Z,1901.25
2017-09-15T09:09:43.425Z,1968.75
2017-09-15T09:10:43.475Z,2053.13
2017-09-15T09:11:43.526Z,2120.63
2017-09-15T09:12:43.583Z,2176.88
2017-09-15T09:13:43.699Z,2261.25
2017-09-15T09:14:43.687Z,2334.38
2017-09-15T09:15:43.744Z,2345.63
2017-09-15T09:16:43.793Z,2300.63
2017-09-15T09:17:43.847Z,2295.00
2017-09-15T09:18:43.962Z,2407.50
2017-09-15T09:19:43.953Z,2385.00
2017-09-15T09:20:44.007Z,2553.75
2017-09-15T09:21:44.065Z,2593.13
2017-09-15T09:22:44.116Z,2638.13
2017-09-15T09:23:44.232Z,2655.00
2017-09-15T09:24:44.222Z,2666.25
2017-09-15T09:25:44.274Z,2688.75
2017-09-15T09:26:44.330Z,2025.00
2017-09-15T09:27:44.382Z,2486.25
2017-09-15T09:28:44.506Z,2705.63
2017-09-15T09:29:44.491Z,2458.13
2017-09-15T09:30:44.548Z,2390.63
2017-09-15T09:31:44.601Z,2283.75
2017-09-15T09:32:44.650Z,2750.63
2017-09-15T09:33:44.770Z,2733.75
2017-09-15T09:34:44.756Z,2745.00
2017-09-15T09:35:44.814Z,2773.13
2017-09-15T09:36:44.861Z,2812.50
2017-09-15T09:37:44.917Z,2874.38
2017-09-15T09:38:45.050Z,2925.00
2017-09-15T09:39:45.025Z,2986.88
2017-09-15T09:40:45.079Z,3003.75
2017-09-15T09:41:45.131Z,2986.88
2017-09-15T09:42:45.182Z,3009.38
2017-09-15T09:43:45.315Z,3015.00
2017-09-15T09:44:45.355Z,3009.38
2017-09-15T09:45:45.343Z,2992.50
2017-09-15T09:46:45.405Z,2981.25
2017-09-15T09:47:45.451Z,2998.13
2017-09-15T09:48:45.533Z,3031.88
2017-09-15T09:49:45.619Z,3031.88
2017-09-15T09:50:45.612Z,3138.75
2017-09-15T09:51:45.666Z,2632.50
2017-09-15T09:52:45.728Z,3228.75
2017-09-15T09:53:45.772Z,3307.50
2017-09-15T09:54:45.885Z,3318.75
2017-09-15T09:55:45.879Z,3307.50
2017-09-15T09:56:45.933Z,2655.00
2017-09-15T09:57:45.985Z,3245.63
2017-09-15T09:58:46.038Z,3144.38
2017-09-15T09:59:46.177Z,3031.88
2017-09-15T10:00:46.148Z,3228.75
2017-09-15T10:01:46.205Z,3318.75
2017-09-15T10:02:46.259Z,3324.38
2017-09-15T10:03:46.308Z,3273.75
2017-09-15T10:04:46.438Z,3279.38
2017-09-15T10:05:46.489Z,3256.88
2017-09-15T10:06:46.471Z,3200.63
2017-09-15T10:07:46.533Z,3116.25
2017-09-15T10:08:46.582Z,2930.63
2017-09-15T10:09:46.637Z,2773.13
2017-09-15T10:10:46.750Z,2643.75
2017-09-15T10:11:46.743Z,2542.50
2017-09-15T10:12:46.798Z,2503.13
2017-09-15T10:13:46.851Z,2323.13
2017-09-15T10:14:49.211Z,2160.00
2017-09-15T10:15:47.854Z,2036.25
2017-09-15T10:16:47.015Z,1968.75
2017-09-15T10:17:47.171Z,1878.75
2017-09-15T10:18:47.121Z,1828.13
2017-09-15T10:19:47.185Z,1608.75
2017-09-15T10:20:47.290Z,1676.25
2017-09-15T10:21:48.026Z,1732.50
2017-09-15T10:22:48.406Z,1738.13
2017-09-15T10:23:47.568Z,1805.63
2017-09-15T10:24:47.442Z,1749.38
2017-09-15T10:25:47.560Z,1783.13
2017-09-15T10:26:48.383Z,1929.38
2017-09-15T10:27:47.859Z,1749.38
2017-09-15T10:28:49.528Z,1636.88
2017-09-15T10:29:52.216Z,1518.75
2017-09-15T10:30:47.966Z,1558.13
2017-09-15T10:31:48.302Z,1771.88
2017-09-15T10:32:47.871Z,2075.63
2017-09-15T10:33:49.797Z,2025.00
2017-09-15T10:34:48.873Z,2081.25
2017-09-15T10:35:49.370Z,2109.38
2017-09-15T10:36:50.649Z,2120.63
2017-09-15T10:37:48.135Z,2137.50
2017-09-15T10:38:48.828Z,2126.25
2017-09-15T10:39:49.229Z,2103.75
2017-09-15T10:40:49.550Z,2086.88
2017-09-15T10:41:48.769Z,2081.25
2017-09-15T10:42:51.860Z,2098.13
2017-09-15T10:43:49.219Z,2103.75
2017-09-15T10:44:49.293Z,2115.00
2017-09-15T10:45:48.629Z,2154.38
2017-09-15T10:46:48.614Z,2205.00
2017-09-15T10:47:48.668Z,2272.50
2017-09-15T10:48:48.720Z,2120.63
2017-09-15T10:49:48.771Z,2306.25
2017-09-15T10:50:48.911Z,2182.50
2017-09-15T10:51:48.883Z,2542.50
2017-09-15T10:52:48.932Z,2503.13
2017-09-15T10:53:48.987Z,2638.13
2017-09-15T10:54:49.041Z,2593.13
2017-09-15T10:55:49.170Z,2610.00
2017-09-15T10:56:49.147Z,2711.25
2017-09-15T10:57:49.204Z,2705.63
2017-09-15T10:58:49.261Z,2266.88
2017-09-15T10:59:49.310Z,1338.75
2017-09-15T11:00:49.455Z,2070.00
2017-09-15T11:01:49.419Z,1158.75
2017-09-15T11:02:49.470Z,2694.38
2017-09-15T11:03:49.528Z,2947.50
2017-09-15T11:04:49.582Z,2941.88
2017-09-15T11:05:49.708Z,1856.25
2017-09-15T11:06:49.690Z,1501.88
2017-09-15T11:07:49.739Z,2266.88
2017-09-15T11:08:49.794Z,2244.38
2017-09-15T11:09:49.851Z,2075.63
2017-09-15T11:10:49.969Z,922.50
2017-09-15T11:11:49.955Z,2750.63
2017-09-15T11:12:50.009Z,1192.50
2017-09-15T11:13:50.069Z,2812.50
2017-09-15T11:14:50.117Z,2874.38
2017-09-15T11:15:50.233Z,3195.00
2017-09-15T11:16:50.289Z,3105.00
2017-09-15T11:17:50.283Z,2829.38
2017-09-15T11:18:50.356Z,3015.00
2017-09-15T11:19:50.390Z,2908.13
2017-09-15T11:20:50.455Z,2947.50
2017-09-15T11:21:50.556Z,3150.00
2017-09-15T11:22:50.561Z,3234.38
2017-09-15T11:23:50.607Z,2109.38
2017-09-15T11:24:50.658Z,3307.50
2017-09-15T11:25:50.718Z,3240.00
2017-09-15T11:26:50.831Z,3330.00
2017-09-15T11:27:50.825Z,3352.50
2017-09-15T11:28:50.884Z,3358.13
2017-09-15T11:29:50.936Z,3217.50
2017-09-15T11:30:50.990Z,2868.75
2017-09-15T11:31:51.108Z,1434.38
2017-09-15T11:32:51.101Z,1080.00
2017-09-15T11:33:51.159Z,1603.13
2017-09-15T11:34:51.213Z,832.50
2017-09-15T11:35:51.276Z,1676.25
2017-09-15T11:36:51.392Z,1400.63
2017-09-15T11:37:51.378Z,1226.25
2017-09-15T11:38:51.436Z,2446.88
2017-09-15T11:39:51.490Z,2328.75
2017-09-15T11:40:51.545Z,2694.38
2017-09-15T11:41:51.674Z,3116.25
2017-09-15T11:42:51.656Z,3099.38
2017-09-15T11:43:51.711Z,3076.88
2017-09-15T11:44:51.769Z,3082.50
2017-09-15T11:45:51.824Z,3071.25
2017-09-15T11:46:51.936Z,3082.50
2017-09-15T11:47:51.991Z,3093.75
2017-09-15T11:48:51.985Z,3127.50
2017-09-15T11:49:52.041Z,3166.88
2017-09-15T11:50:52.096Z,3178.13
2017-09-15T11:51:52.153Z,3183.75
2017-09-15T11:52:52.274Z,3217.50
2017-09-15T11:53:52.268Z,2250.00
2017-09-15T11:54:52.321Z,1035.00
2017-09-15T11:55:52.381Z,916.88
2017-09-15T11:56:52.450Z,945.00
2017-09-15T11:57:52.572Z,1051.88
2017-09-15T11:58:52.545Z,1530.00
2017-09-15T11:59:52.602Z,1057.50
2017-09-15T12:00:52.656Z,928.13
2017-09-15T12:01:52.712Z,956.25
2017-09-15T12:02:52.844Z,1389.38
2017-09-15T12:03:52.824Z,3408.75
2017-09-15T12:04:52.881Z,1873.13
2017-09-15T12:05:52.938Z,3133.13
2017-09-15T12:06:52.990Z,1670.63
2017-09-15T12:07:53.108Z,2120.63
2017-09-15T12:08:53.165Z,2188.13
2017-09-15T12:09:53.158Z,2970.00
2017-09-15T12:10:53.215Z,3380.63
2017-09-15T12:11:53.267Z,1653.75
2017-09-15T12:12:53.321Z,3054.38
2017-09-15T12:13:53.442Z,3026.25
2017-09-15T12:14:53.435Z,2570.63
2017-09-15T12:15:53.490Z,3026.25
2017-09-15T12:16:53.544Z,2649.38
2017-09-15T12:17:53.604Z,2171.25
2017-09-15T12:18:53.719Z,1462.50
2017-09-15T12:19:53.716Z,1237.50
2017-09-15T12:20:53.772Z,3133.13
2017-09-15T12:21:53.827Z,2626.88
2017-09-15T12:22:53.887Z,2227.50
2017-09-15T12:23:54.001Z,1563.75
2017-09-15T12:24:53.995Z,1794.38
2017-09-15T12:25:54.056Z,1417.50
2017-09-15T12:26:54.110Z,1389.38
2017-09-15T12:27:54.170Z,3110.63
2017-09-15T12:28:54.303Z,1451.25
2017-09-15T12:29:54.283Z,1440.00
2017-09-15T12:30:54.339Z,1901.25
2017-09-15T12:31:54.391Z,1265.63
2017-09-15T12:32:54.462Z,1203.75
2017-09-15T12:33:54.598Z,1220.63
2017-09-15T12:34:54.560Z,1305.00
2017-09-15T12:35:54.614Z,1321.88
2017-09-15T12:36:54.674Z,1558.13
2017-09-15T12:37:54.729Z,1665.00
2017-09-15T12:38:54.844Z,1490.63
2017-09-15T12:39:54.898Z,1479.38